sensor_id;sensor_type;location;lat;lon;timestamp;P1;durP1;ratioP1;P2;durP2;ratioP2
8737;SDS011;4405;49.272;8.590;2023-06-14T00:01:03;3.80;;;3.60;;
8737;SDS011;4405;49.272;8.590;2023-06-14T00:03:31;4.30;;;3.93;;
8737;SDS011;4405;49.272;8.590;2023-06-14T00:05:57;4.60;;;4.30;;
8737;SDS011;4405;49.272;8.590;2023-06-14T00:08:25;4.60;;;4.23;;
8737;SDS011;4405;49.272;8.590;2023-06-14T00:10:52;4.63;;;4.27;;
8737;SDS011;4405;49.272;8.590;2023-06-14T00:13:18;4.60;;;4.30;;
8737;SDS011;4405;49.272;8.590;2023-06-14T00:15:45;6.87;;;4.20;;
8737;SDS011;4405;49.272;8.590;2023-06-14T00:18:12;4.63;;;4.10;;
8737;SDS011;4405;49.272;8.590;2023-06-14T00:20:38;4.20;;;3.90;;
8737;SDS011;4405;49.272;8.590;2023-06-14T00:23:06;4.50;;;4.20;;
8737;SDS011;4405;49.272;8.590;2023-06-14T00:25:34;4.03;;;3.80;;
8737;SDS011;4405;49.272;8.590;2023-06-14T00:28:00;4.87;;;4.07;;
8737;SDS011;4405;49.272;8.590;2023-06-14T00:30:27;4.67;;;4.37;;
8737;SDS011;4405;49.272;8.590;2023-06-14T00:32:55;4.50;;;4.20;;
8737;SDS011;4405;49.272;8.590;2023-06-14T00:35:22;5.60;;;4.27;;
8737;SDS011;4405;49.272;8.590;2023-06-14T00:37:48;4.30;;;4.00;;
8737;SDS011;4405;49.272;8.590;2023-06-14T00:40:14;4.20;;;3.93;;
8737;SDS011;4405;49.272;8.590;2023-06-14T00:42:42;5.37;;;4.20;;
8737;SDS011;4405;49.272;8.590;2023-06-14T00:45:09;5.10;;;4.10;;
8737;SDS011;4405;49.272;8.590;2023-06-14T00:47:35;4.93;;;4.53;;
8737;SDS011;4405;49.272;8.590;2023-06-14T00:50:03;5.17;;;4.30;;
8737;SDS011;4405;49.272;8.590;2023-06-14T00:52:32;8.50;;;4.30;;
8737;SDS011;4405;49.272;8.590;2023-06-14T00:54:59;7.30;;;4.30;;
8737;SDS011;4405;49.272;8.590;2023-06-14T00:57:26;3.97;;;3.77;;
8737;SDS011;4405;49.272;8.590;2023-06-14T00:59:55;4.70;;;4.33;;
8737;SDS011;4405;49.272;8.590;2023-06-14T01:02:22;4.80;;;4.40;;
8737;SDS011;4405;49.272;8.590;2023-06-14T01:04:49;6.93;;;4.57;;
8737;SDS011;4405;49.272;8.590;2023-06-14T01:07:18;5.93;;;4.33;;
8737;SDS011;4405;49.272;8.590;2023-06-14T01:09:48;4.90;;;4.60;;
8737;SDS011;4405;49.272;8.590;2023-06-14T01:12:17;5.27;;;4.73;;
8737;SDS011;4405;49.272;8.590;2023-06-14T01:14:45;4.93;;;4.10;;
8737;SDS011;4405;49.272;8.590;2023-06-14T01:17:14;7.00;;;4.77;;
8737;SDS011;4405;49.272;8.590;2023-06-14T01:19:41;5.90;;;4.10;;
8737;SDS011;4405;49.272;8.590;2023-06-14T01:22:09;6.50;;;4.10;;
8737;SDS011;4405;49.272;8.590;2023-06-14T01:24:37;9.57;;;4.73;;
8737;SDS011;4405;49.272;8.590;2023-06-14T01:27:04;5.17;;;4.77;;
8737;SDS011;4405;49.272;8.590;2023-06-14T01:29:32;6.60;;;4.60;;
8737;SDS011;4405;49.272;8.590;2023-06-14T01:31:58;5.03;;;4.60;;
8737;SDS011;4405;49.272;8.590;2023-06-14T01:34:25;4.63;;;4.23;;
8737;SDS011;4405;49.272;8.590;2023-06-14T01:36:51;5.37;;;4.40;;
8737;SDS011;4405;49.272;8.590;2023-06-14T01:39:18;4.40;;;3.90;;
8737;SDS011;4405;49.272;8.590;2023-06-14T01:41:46;4.63;;;4.33;;
8737;SDS011;4405;49.272;8.590;2023-06-14T01:44:13;4.33;;;4.03;;
8737;SDS011;4405;49.272;8.590;2023-06-14T01:46:40;5.50;;;5.00;;
8737;SDS011;4405;49.272;8.590;2023-06-14T01:49:08;5.13;;;4.30;;
8737;SDS011;4405;49.272;8.590;2023-06-14T01:51:34;4.80;;;4.27;;
8737;SDS011;4405;49.272;8.590;2023-06-14T01:54:00;4.57;;;4.17;;
8737;SDS011;4405;49.272;8.590;2023-06-14T01:56:27;4.43;;;4.10;;
8737;SDS011;4405;49.272;8.590;2023-06-14T01:58:54;4.77;;;4.23;;
8737;SDS011;4405;49.272;8.590;2023-06-14T02:01:21;7.27;;;4.63;;
8737;SDS011;4405;49.272;8.590;2023-06-14T02:03:47;4.97;;;4.17;;
8737;SDS011;4405;49.272;8.590;2023-06-14T02:06:14;4.60;;;4.30;;
8737;SDS011;4405;49.272;8.590;2023-06-14T02:08:41;4.87;;;4.47;;
8737;SDS011;4405;49.272;8.590;2023-06-14T02:11:07;6.63;;;4.30;;
8737;SDS011;4405;49.272;8.590;2023-06-14T02:13:34;4.60;;;4.30;;
8737;SDS011;4405;49.272;8.590;2023-06-14T02:16:01;5.57;;;4.40;;
8737;SDS011;4405;49.272;8.590;2023-06-14T02:18:28;4.77;;;4.27;;
8737;SDS011;4405;49.272;8.590;2023-06-14T02:20:54;4.87;;;4.10;;
8737;SDS011;4405;49.272;8.590;2023-06-14T02:23:21;5.57;;;4.20;;
8737;SDS011;4405;49.272;8.590;2023-06-14T02:25:47;6.30;;;4.60;;
8737;SDS011;4405;49.272;8.590;2023-06-14T02:28:14;4.93;;;4.27;;
8737;SDS011;4405;49.272;8.590;2023-06-14T02:30:40;4.77;;;4.30;;
8737;SDS011;4405;49.272;8.590;2023-06-14T02:33:08;4.67;;;4.37;;
8737;SDS011;4405;49.272;8.590;2023-06-14T02:35:37;5.40;;;4.90;;
8737;SDS011;4405;49.272;8.590;2023-06-14T02:38:03;5.60;;;5.07;;
8737;SDS011;4405;49.272;8.590;2023-06-14T02:40:30;5.13;;;4.63;;
8737;SDS011;4405;49.272;8.590;2023-06-14T02:42:56;5.93;;;4.50;;
8737;SDS011;4405;49.272;8.590;2023-06-14T02:45:22;5.60;;;4.30;;
8737;SDS011;4405;49.272;8.590;2023-06-14T02:47:49;4.87;;;4.40;;
8737;SDS011;4405;49.272;8.590;2023-06-14T02:50:17;4.27;;;3.90;;
8737;SDS011;4405;49.272;8.590;2023-06-14T02:52:46;4.43;;;4.13;;
8737;SDS011;4405;49.272;8.590;2023-06-14T02:55:12;4.50;;;4.10;;
8737;SDS011;4405;49.272;8.590;2023-06-14T02:57:39;5.20;;;4.43;;
8737;SDS011;4405;49.272;8.590;2023-06-14T03:00:06;6.13;;;4.40;;
8737;SDS011;4405;49.272;8.590;2023-06-14T03:02:35;5.13;;;4.10;;
8737;SDS011;4405;49.272;8.590;2023-06-14T03:05:01;5.93;;;4.40;;
8737;SDS011;4405;49.272;8.590;2023-06-14T03:07:29;8.57;;;4.47;;
8737;SDS011;4405;49.272;8.590;2023-06-14T03:09:56;6.97;;;4.60;;
8737;SDS011;4405;49.272;8.590;2023-06-14T03:12:22;9.20;;;4.90;;
8737;SDS011;4405;49.272;8.590;2023-06-14T03:14:48;5.67;;;4.60;;
8737;SDS011;4405;49.272;8.590;2023-06-14T03:17:15;4.73;;;4.43;;
8737;SDS011;4405;49.272;8.590;2023-06-14T03:19:42;4.83;;;4.40;;
8737;SDS011;4405;49.272;8.590;2023-06-14T03:22:08;5.97;;;4.50;;
8737;SDS011;4405;49.272;8.590;2023-06-14T03:24:38;5.10;;;4.70;;
8737;SDS011;4405;49.272;8.590;2023-06-14T03:27:05;4.83;;;4.50;;
8737;SDS011;4405;49.272;8.590;2023-06-14T03:29:31;6.80;;;4.30;;
8737;SDS011;4405;49.272;8.590;2023-06-14T03:31:58;5.20;;;4.73;;
8737;SDS011;4405;49.272;8.590;2023-06-14T03:34:24;6.33;;;5.10;;
8737;SDS011;4405;49.272;8.590;2023-06-14T03:36:50;9.37;;;4.70;;
8737;SDS011;4405;49.272;8.590;2023-06-14T03:39:17;5.43;;;4.93;;
8737;SDS011;4405;49.272;8.590;2023-06-14T03:41:44;6.77;;;5.33;;
8737;SDS011;4405;49.272;8.590;2023-06-14T03:44:11;9.83;;;5.63;;
8737;SDS011;4405;49.272;8.590;2023-06-14T03:46:37;7.03;;;4.97;;
8737;SDS011;4405;49.272;8.590;2023-06-14T03:49:03;6.07;;;5.17;;
8737;SDS011;4405;49.272;8.590;2023-06-14T03:51:30;7.37;;;5.30;;
8737;SDS011;4405;49.272;8.590;2023-06-14T03:53:56;5.97;;;5.40;;
8737;SDS011;4405;49.272;8.590;2023-06-14T03:56:22;5.83;;;5.33;;
8737;SDS011;4405;49.272;8.590;2023-06-14T03:58:50;6.40;;;5.00;;
8737;SDS011;4405;49.272;8.590;2023-06-14T04:01:16;5.73;;;5.20;;
8737;SDS011;4405;49.272;8.590;2023-06-14T04:03:43;6.43;;;5.50;;
8737;SDS011;4405;49.272;8.590;2023-06-14T04:06:09;7.23;;;5.10;;
8737;SDS011;4405;49.272;8.590;2023-06-14T04:08:35;5.47;;;4.97;;
8737;SDS011;4405;49.272;8.590;2023-06-14T04:11:04;6.03;;;5.13;;
8737;SDS011;4405;49.272;8.590;2023-06-14T04:13:31;6.30;;;5.07;;
8737;SDS011;4405;49.272;8.590;2023-06-14T04:16:01;5.70;;;5.20;;
8737;SDS011;4405;49.272;8.590;2023-06-14T04:18:27;7.33;;;5.70;;
8737;SDS011;4405;49.272;8.590;2023-06-14T04:20:54;5.27;;;4.87;;
8737;SDS011;4405;49.272;8.590;2023-06-14T04:23:21;7.90;;;5.30;;
8737;SDS011;4405;49.272;8.590;2023-06-14T04:25:48;6.13;;;5.43;;
8737;SDS011;4405;49.272;8.590;2023-06-14T04:28:14;6.80;;;6.03;;
8737;SDS011;4405;49.272;8.590;2023-06-14T04:30:42;5.33;;;4.93;;
8737;SDS011;4405;49.272;8.590;2023-06-14T04:33:11;6.03;;;5.43;;
8737;SDS011;4405;49.272;8.590;2023-06-14T04:35:37;7.87;;;5.33;;
8737;SDS011;4405;49.272;8.590;2023-06-14T04:38:04;5.80;;;5.23;;
8737;SDS011;4405;49.272;8.590;2023-06-14T04:40:34;8.47;;;5.47;;
8737;SDS011;4405;49.272;8.590;2023-06-14T04:43:01;6.87;;;5.70;;
8737;SDS011;4405;49.272;8.590;2023-06-14T04:45:30;6.43;;;5.80;;
8737;SDS011;4405;49.272;8.590;2023-06-14T04:47:58;6.37;;;5.87;;
8737;SDS011;4405;49.272;8.590;2023-06-14T04:50:25;5.60;;;5.20;;
8737;SDS011;4405;49.272;8.590;2023-06-14T04:52:52;7.13;;;5.70;;
8737;SDS011;4405;49.272;8.590;2023-06-14T04:55:18;6.00;;;5.40;;
8737;SDS011;4405;49.272;8.590;2023-06-14T04:57:45;5.90;;;5.17;;
8737;SDS011;4405;49.272;8.590;2023-06-14T05:00:12;10.50;;;5.87;;
8737;SDS011;4405;49.272;8.590;2023-06-14T05:02:39;9.33;;;5.93;;
8737;SDS011;4405;49.272;8.590;2023-06-14T05:05:05;6.80;;;6.20;;
8737;SDS011;4405;49.272;8.590;2023-06-14T05:07:34;10.57;;;6.40;;
8737;SDS011;4405;49.272;8.590;2023-06-14T05:10:00;8.77;;;6.40;;
8737;SDS011;4405;49.272;8.590;2023-06-14T05:12:26;5.93;;;5.53;;
8737;SDS011;4405;49.272;8.590;2023-06-14T05:14:54;6.60;;;5.90;;
8737;SDS011;4405;49.272;8.590;2023-06-14T05:17:20;7.70;;;5.90;;
8737;SDS011;4405;49.272;8.590;2023-06-14T05:19:47;6.30;;;5.80;;
8737;SDS011;4405;49.272;8.590;2023-06-14T05:22:13;7.23;;;5.80;;
8737;SDS011;4405;49.272;8.590;2023-06-14T05:24:41;6.30;;;5.77;;
8737;SDS011;4405;49.272;8.590;2023-06-14T05:27:07;9.77;;;6.20;;
8737;SDS011;4405;49.272;8.590;2023-06-14T05:29:34;6.63;;;6.03;;
8737;SDS011;4405;49.272;8.590;2023-06-14T05:32:01;6.43;;;5.93;;
8737;SDS011;4405;49.272;8.590;2023-06-14T05:34:27;7.63;;;6.10;;
8737;SDS011;4405;49.272;8.590;2023-06-14T05:36:53;7.50;;;6.70;;
8737;SDS011;4405;49.272;8.590;2023-06-14T05:39:20;6.73;;;6.13;;
8737;SDS011;4405;49.272;8.590;2023-06-14T05:41:48;8.27;;;5.70;;
8737;SDS011;4405;49.272;8.590;2023-06-14T05:44:14;6.23;;;5.63;;
8737;SDS011;4405;49.272;8.590;2023-06-14T05:46:40;5.47;;;4.90;;
8737;SDS011;4405;49.272;8.590;2023-06-14T05:49:07;6.23;;;5.83;;
8737;SDS011;4405;49.272;8.590;2023-06-14T05:51:33;5.67;;;5.00;;
8737;SDS011;4405;49.272;8.590;2023-06-14T05:53:59;5.80;;;4.80;;
8737;SDS011;4405;49.272;8.590;2023-06-14T05:56:26;9.27;;;5.00;;
8737;SDS011;4405;49.272;8.590;2023-06-14T05:58:54;8.50;;;5.20;;
8737;SDS011;4405;49.272;8.590;2023-06-14T06:01:20;6.20;;;5.17;;
8737;SDS011;4405;49.272;8.590;2023-06-14T06:03:47;5.03;;;4.37;;
8737;SDS011;4405;49.272;8.590;2023-06-14T06:06:13;4.87;;;4.57;;
8737;SDS011;4405;49.272;8.590;2023-06-14T06:08:40;5.30;;;4.80;;
8737;SDS011;4405;49.272;8.590;2023-06-14T06:11:06;4.50;;;4.20;;
8737;SDS011;4405;49.272;8.590;2023-06-14T06:13:33;6.33;;;4.70;;
8737;SDS011;4405;49.272;8.590;2023-06-14T06:16:01;5.03;;;4.63;;
8737;SDS011;4405;49.272;8.590;2023-06-14T06:18:27;4.87;;;4.43;;
8737;SDS011;4405;49.272;8.590;2023-06-14T06:20:54;5.20;;;4.70;;
8737;SDS011;4405;49.272;8.590;2023-06-14T06:23:20;7.00;;;4.40;;
8737;SDS011;4405;49.272;8.590;2023-06-14T06:25:47;5.30;;;4.80;;
8737;SDS011;4405;49.272;8.590;2023-06-14T06:28:13;7.13;;;5.10;;
8737;SDS011;4405;49.272;8.590;2023-06-14T06:30:40;6.03;;;4.83;;
8737;SDS011;4405;49.272;8.590;2023-06-14T06:33:08;7.47;;;4.97;;
8737;SDS011;4405;49.272;8.590;2023-06-14T06:35:34;7.43;;;4.97;;
8737;SDS011;4405;49.272;8.590;2023-06-14T06:38:01;5.23;;;4.67;;
8737;SDS011;4405;49.272;8.590;2023-06-14T06:40:27;4.53;;;4.13;;
8737;SDS011;4405;49.272;8.590;2023-06-14T06:42:53;6.43;;;4.50;;
8737;SDS011;4405;49.272;8.590;2023-06-14T06:45:20;4.90;;;4.17;;
8737;SDS011;4405;49.272;8.590;2023-06-14T06:47:48;4.90;;;4.40;;
8737;SDS011;4405;49.272;8.590;2023-06-14T06:50:17;6.67;;;4.80;;
8737;SDS011;4405;49.272;8.590;2023-06-14T06:52:43;6.03;;;4.87;;
8737;SDS011;4405;49.272;8.590;2023-06-14T06:55:10;7.33;;;4.57;;
8737;SDS011;4405;49.272;8.590;2023-06-14T06:57:38;4.93;;;4.47;;
8737;SDS011;4405;49.272;8.590;2023-06-14T07:00:04;10.90;;;4.87;;
8737;SDS011;4405;49.272;8.590;2023-06-14T07:02:33;4.30;;;4.10;;
8737;SDS011;4405;49.272;8.590;2023-06-14T07:04:59;5.23;;;4.00;;
8737;SDS011;4405;49.272;8.590;2023-06-14T07:07:27;5.87;;;4.60;;
8737;SDS011;4405;49.272;8.590;2023-06-14T07:09:53;6.47;;;4.37;;
8737;SDS011;4405;49.272;8.590;2023-06-14T07:12:22;5.50;;;4.50;;
8737;SDS011;4405;49.272;8.590;2023-06-14T07:14:48;8.27;;;4.60;;
8737;SDS011;4405;49.272;8.590;2023-06-14T07:17:15;6.00;;;4.67;;
8737;SDS011;4405;49.272;8.590;2023-06-14T07:19:41;4.53;;;4.13;;
8737;SDS011;4405;49.272;8.590;2023-06-14T07:22:07;7.27;;;4.57;;
8737;SDS011;4405;49.272;8.590;2023-06-14T07:24:35;4.40;;;4.20;;
8737;SDS011;4405;49.272;8.590;2023-06-14T07:27:02;6.90;;;4.33;;
8737;SDS011;4405;49.272;8.590;2023-06-14T07:29:29;4.23;;;3.93;;
8737;SDS011;4405;49.272;8.590;2023-06-14T07:31:55;4.57;;;4.27;;
8737;SDS011;4405;49.272;8.590;2023-06-14T07:34:21;6.67;;;4.20;;
8737;SDS011;4405;49.272;8.590;2023-06-14T07:36:48;10.17;;;4.30;;
8737;SDS011;4405;49.272;8.590;2023-06-14T07:39:14;4.73;;;4.30;;
8737;SDS011;4405;49.272;8.590;2023-06-14T07:41:42;6.13;;;4.40;;
8737;SDS011;4405;49.272;8.590;2023-06-14T07:44:08;6.47;;;4.63;;
8737;SDS011;4405;49.272;8.590;2023-06-14T07:46:35;4.47;;;3.90;;
8737;SDS011;4405;49.272;8.590;2023-06-14T07:49:02;4.97;;;4.27;;
8737;SDS011;4405;49.272;8.590;2023-06-14T07:51:28;5.83;;;4.83;;
8737;SDS011;4405;49.272;8.590;2023-06-14T07:53:55;4.87;;;4.40;;
8737;SDS011;4405;49.272;8.590;2023-06-14T07:56:21;4.73;;;4.23;;
8737;SDS011;4405;49.272;8.590;2023-06-14T07:58:49;5.00;;;4.30;;
8737;SDS011;4405;49.272;8.590;2023-06-14T08:01:15;5.40;;;4.17;;
8737;SDS011;4405;49.272;8.590;2023-06-14T08:03:42;4.80;;;4.30;;
8737;SDS011;4405;49.272;8.590;2023-06-14T08:06:09;4.57;;;4.17;;
8737;SDS011;4405;49.272;8.590;2023-06-14T08:08:35;7.53;;;4.37;;
8737;SDS011;4405;49.272;8.590;2023-06-14T08:11:02;4.40;;;4.10;;
8737;SDS011;4405;49.272;8.590;2023-06-14T08:13:28;4.20;;;4.00;;
8737;SDS011;4405;49.272;8.590;2023-06-14T08:15:56;4.40;;;4.00;;
8737;SDS011;4405;49.272;8.590;2023-06-14T08:18:23;5.07;;;4.13;;
8737;SDS011;4405;49.272;8.590;2023-06-14T08:20:50;4.40;;;4.00;;
8737;SDS011;4405;49.272;8.590;2023-06-14T08:23:17;7.43;;;4.40;;
8737;SDS011;4405;49.272;8.590;2023-06-14T08:25:44;5.00;;;4.10;;
8737;SDS011;4405;49.272;8.590;2023-06-14T08:28:10;6.00;;;4.37;;
8737;SDS011;4405;49.272;8.590;2023-06-14T08:30:36;4.70;;;4.30;;
8737;SDS011;4405;49.272;8.590;2023-06-14T08:33:04;4.30;;;4.00;;
8737;SDS011;4405;49.272;8.590;2023-06-14T08:35:31;6.07;;;4.10;;
8737;SDS011;4405;49.272;8.590;2023-06-14T08:37:57;6.97;;;4.40;;
8737;SDS011;4405;49.272;8.590;2023-06-14T08:40:23;4.17;;;3.87;;
8737;SDS011;4405;49.272;8.590;2023-06-14T08:42:50;5.63;;;3.80;;
8737;SDS011;4405;49.272;8.590;2023-06-14T08:45:17;4.57;;;4.20;;
8737;SDS011;4405;49.272;8.590;2023-06-14T08:47:44;4.93;;;4.13;;
8737;SDS011;4405;49.272;8.590;2023-06-14T08:50:12;5.30;;;3.90;;
8737;SDS011;4405;49.272;8.590;2023-06-14T08:52:41;5.40;;;3.90;;
8737;SDS011;4405;49.272;8.590;2023-06-14T08:55:10;6.83;;;4.20;;
8737;SDS011;4405;49.272;8.590;2023-06-14T08:57:37;4.07;;;3.80;;
8737;SDS011;4405;49.272;8.590;2023-06-14T09:00:07;9.70;;;4.30;;
8737;SDS011;4405;49.272;8.590;2023-06-14T09:02:37;4.80;;;4.20;;
8737;SDS011;4405;49.272;8.590;2023-06-14T09:05:03;4.60;;;4.20;;
8737;SDS011;4405;49.272;8.590;2023-06-14T09:07:31;5.07;;;4.43;;
8737;SDS011;4405;49.272;8.590;2023-06-14T09:10:05;7.53;;;4.60;;
8737;SDS011;4405;49.272;8.590;2023-06-14T09:12:31;6.83;;;4.53;;
8737;SDS011;4405;49.272;8.590;2023-06-14T09:14:57;5.53;;;4.33;;
8737;SDS011;4405;49.272;8.590;2023-06-14T09:17:24;4.93;;;4.53;;
8737;SDS011;4405;49.272;8.590;2023-06-14T09:19:51;4.67;;;4.27;;
8737;SDS011;4405;49.272;8.590;2023-06-14T09:22:17;5.30;;;4.47;;
8737;SDS011;4405;49.272;8.590;2023-06-14T09:24:45;5.10;;;3.90;;
8737;SDS011;4405;49.272;8.590;2023-06-14T09:27:14;6.80;;;4.17;;
8737;SDS011;4405;49.272;8.590;2023-06-14T09:29:40;5.17;;;4.20;;
8737;SDS011;4405;49.272;8.590;2023-06-14T09:32:07;4.23;;;3.93;;
8737;SDS011;4405;49.272;8.590;2023-06-14T09:34:34;4.53;;;4.23;;
8737;SDS011;4405;49.272;8.590;2023-06-14T09:37:01;4.70;;;4.10;;
8737;SDS011;4405;49.272;8.590;2023-06-14T09:39:27;5.23;;;4.20;;
8737;SDS011;4405;49.272;8.590;2023-06-14T09:41:56;4.73;;;4.03;;
8737;SDS011;4405;49.272;8.590;2023-06-14T09:44:23;6.27;;;4.17;;
8737;SDS011;4405;49.272;8.590;2023-06-14T09:46:53;9.20;;;4.53;;
8737;SDS011;4405;49.272;8.590;2023-06-14T09:49:21;4.47;;;4.07;;
8737;SDS011;4405;49.272;8.590;2023-06-14T09:51:50;5.50;;;4.07;;
8737;SDS011;4405;49.272;8.590;2023-06-14T09:54:19;4.20;;;3.90;;
8737;SDS011;4405;49.272;8.590;2023-06-14T09:56:47;4.30;;;4.07;;
8737;SDS011;4405;49.272;8.590;2023-06-14T09:59:16;6.77;;;3.80;;
8737;SDS011;4405;49.272;8.590;2023-06-14T10:01:43;5.87;;;4.10;;
8737;SDS011;4405;49.272;8.590;2023-06-14T10:04:10;4.57;;;4.10;;
8737;SDS011;4405;49.272;8.590;2023-06-14T10:06:37;4.70;;;4.40;;
8737;SDS011;4405;49.272;8.590;2023-06-14T10:09:04;5.93;;;4.03;;
8737;SDS011;4405;49.272;8.590;2023-06-14T10:11:33;6.37;;;4.00;;
8737;SDS011;4405;49.272;8.590;2023-06-14T10:14:01;4.60;;;4.20;;
8737;SDS011;4405;49.272;8.590;2023-06-14T10:16:30;4.50;;;4.10;;
8737;SDS011;4405;49.272;8.590;2023-06-14T10:19:00;7.17;;;3.80;;
8737;SDS011;4405;49.272;8.590;2023-06-14T10:21:32;4.43;;;4.00;;
8737;SDS011;4405;49.272;8.590;2023-06-14T10:23:59;5.90;;;4.50;;
8737;SDS011;4405;49.272;8.590;2023-06-14T10:26:27;4.17;;;3.93;;
8737;SDS011;4405;49.272;8.590;2023-06-14T10:28:57;4.30;;;4.00;;
8737;SDS011;4405;49.272;8.590;2023-06-14T10:34:22;4.63;;;3.87;;
8737;SDS011;4405;49.272;8.590;2023-06-14T10:36:59;6.57;;;3.80;;
8737;SDS011;4405;49.272;8.590;2023-06-14T10:39:26;4.37;;;3.90;;
8737;SDS011;4405;49.272;8.590;2023-06-14T10:41:55;4.03;;;3.63;;
8737;SDS011;4405;49.272;8.590;2023-06-14T10:50:06;3.80;;;3.53;;
8737;SDS011;4405;49.272;8.590;2023-06-14T10:52:33;5.07;;;3.60;;
8737;SDS011;4405;49.272;8.590;2023-06-14T10:55:01;4.13;;;3.70;;
8737;SDS011;4405;49.272;8.590;2023-06-14T10:57:29;4.00;;;3.63;;
8737;SDS011;4405;49.272;8.590;2023-06-14T10:59:56;5.83;;;3.90;;
8737;SDS011;4405;49.272;8.590;2023-06-14T11:02:29;3.83;;;3.60;;
8737;SDS011;4405;49.272;8.590;2023-06-14T11:05:03;3.43;;;3.13;;
8737;SDS011;4405;49.272;8.590;2023-06-14T11:07:34;3.67;;;3.47;;
8737;SDS011;4405;49.272;8.590;2023-06-14T11:10:05;3.47;;;3.17;;
8737;SDS011;4405;49.272;8.590;2023-06-14T11:12:36;4.03;;;3.37;;
8737;SDS011;4405;49.272;8.590;2023-06-14T11:15:05;4.37;;;3.70;;
8737;SDS011;4405;49.272;8.590;2023-06-14T11:17:32;3.43;;;3.13;;
8737;SDS011;4405;49.272;8.590;2023-06-14T11:20:08;4.17;;;3.83;;
8737;SDS011;4405;49.272;8.590;2023-06-14T11:22:40;3.63;;;3.40;;
8737;SDS011;4405;49.272;8.590;2023-06-14T11:25:08;4.50;;;3.60;;
8737;SDS011;4405;49.272;8.590;2023-06-14T11:27:34;4.20;;;3.30;;
8737;SDS011;4405;49.272;8.590;2023-06-14T11:30:01;6.20;;;3.57;;
8737;SDS011;4405;49.272;8.590;2023-06-14T11:32:27;4.07;;;3.23;;
8737;SDS011;4405;49.272;8.590;2023-06-14T11:34:54;5.30;;;3.60;;
8737;SDS011;4405;49.272;8.590;2023-06-14T11:37:20;3.70;;;3.50;;
8737;SDS011;4405;49.272;8.590;2023-06-14T11:39:49;3.70;;;3.40;;
8737;SDS011;4405;49.272;8.590;2023-06-14T11:42:15;3.47;;;3.23;;
8737;SDS011;4405;49.272;8.590;2023-06-14T11:44:42;3.37;;;3.27;;
8737;SDS011;4405;49.272;8.590;2023-06-14T11:47:11;3.83;;;3.53;;
8737;SDS011;4405;49.272;8.590;2023-06-14T11:49:37;3.60;;;3.30;;
8737;SDS011;4405;49.272;8.590;2023-06-14T11:52:04;4.63;;;3.00;;
8737;SDS011;4405;49.272;8.590;2023-06-14T11:54:31;3.40;;;3.20;;
8737;SDS011;4405;49.272;8.590;2023-06-14T11:56:59;3.87;;;3.60;;
8737;SDS011;4405;49.272;8.590;2023-06-14T11:59:25;4.10;;;3.53;;
8737;SDS011;4405;49.272;8.590;2023-06-14T12:01:52;3.90;;;3.43;;
8737;SDS011;4405;49.272;8.590;2023-06-14T12:04:23;3.10;;;2.90;;
8737;SDS011;4405;49.272;8.590;2023-06-14T12:06:49;3.73;;;3.43;;
8737;SDS011;4405;49.272;8.590;2023-06-14T12:09:18;3.90;;;3.60;;
8737;SDS011;4405;49.272;8.590;2023-06-14T12:11:45;4.87;;;3.40;;
8737;SDS011;4405;49.272;8.590;2023-06-14T12:14:13;5.33;;;3.57;;
8737;SDS011;4405;49.272;8.590;2023-06-14T12:16:39;3.40;;;3.30;;
8737;SDS011;4405;49.272;8.590;2023-06-14T12:19:11;4.57;;;3.20;;
8737;SDS011;4405;49.272;8.590;2023-06-14T12:21:38;3.60;;;3.27;;
8737;SDS011;4405;49.272;8.590;2023-06-14T12:24:05;4.27;;;3.50;;
8737;SDS011;4405;49.272;8.590;2023-06-14T12:26:32;4.67;;;3.50;;
8737;SDS011;4405;49.272;8.590;2023-06-14T12:28:58;4.97;;;3.57;;
8737;SDS011;4405;49.272;8.590;2023-06-14T12:31:26;3.70;;;3.50;;
8737;SDS011;4405;49.272;8.590;2023-06-14T12:33:52;4.07;;;3.60;;
8737;SDS011;4405;49.272;8.590;2023-06-14T12:36:19;3.80;;;3.57;;
8737;SDS011;4405;49.272;8.590;2023-06-14T12:38:45;3.67;;;3.47;;
8737;SDS011;4405;49.272;8.590;2023-06-14T12:41:12;4.47;;;3.40;;
8737;SDS011;4405;49.272;8.590;2023-06-14T12:43:39;3.47;;;3.23;;
8737;SDS011;4405;49.272;8.590;2023-06-14T12:46:05;3.80;;;3.47;;
8737;SDS011;4405;49.272;8.590;2023-06-14T12:48:33;3.90;;;3.60;;
8737;SDS011;4405;49.272;8.590;2023-06-14T12:50:59;3.87;;;3.57;;
8737;SDS011;4405;49.272;8.590;2023-06-14T12:53:26;3.50;;;3.27;;
8737;SDS011;4405;49.272;8.590;2023-06-14T12:55:52;3.60;;;3.40;;
8737;SDS011;4405;49.272;8.590;2023-06-14T12:58:18;3.83;;;3.50;;
8737;SDS011;4405;49.272;8.590;2023-06-14T13:00:45;3.70;;;3.50;;
8737;SDS011;4405;49.272;8.590;2023-06-14T13:03:12;3.73;;;3.47;;
8737;SDS011;4405;49.272;8.590;2023-06-14T13:05:39;5.70;;;3.60;;
8737;SDS011;4405;49.272;8.590;2023-06-14T13:08:06;3.50;;;3.30;;
8737;SDS011;4405;49.272;8.590;2023-06-14T13:10:33;3.93;;;3.37;;
8737;SDS011;4405;49.272;8.590;2023-06-14T13:12:59;3.60;;;3.40;;
8737;SDS011;4405;49.272;8.590;2023-06-14T13:15:26;5.07;;;3.57;;
8737;SDS011;4405;49.272;8.590;2023-06-14T13:17:52;8.33;;;3.50;;
8737;SDS011;4405;49.272;8.590;2023-06-14T13:20:20;3.97;;;3.40;;
8737;SDS011;4405;49.272;8.590;2023-06-14T13:22:48;7.20;;;3.47;;
8737;SDS011;4405;49.272;8.590;2023-06-14T13:25:14;6.40;;;3.60;;
8737;SDS011;4405;49.272;8.590;2023-06-14T13:27:41;3.13;;;2.93;;
8737;SDS011;4405;49.272;8.590;2023-06-14T13:30:07;3.53;;;3.33;;
8737;SDS011;4405;49.272;8.590;2023-06-14T13:32:34;3.50;;;3.23;;
8737;SDS011;4405;49.272;8.590;2023-06-14T13:35:01;3.50;;;3.27;;
8737;SDS011;4405;49.272;8.590;2023-06-14T13:37:29;4.33;;;3.30;;
8737;SDS011;4405;49.272;8.590;2023-06-14T13:39:56;3.50;;;3.30;;
8737;SDS011;4405;49.272;8.590;2023-06-14T13:42:23;3.80;;;3.50;;
8737;SDS011;4405;49.272;8.590;2023-06-14T13:44:49;4.10;;;3.80;;
8737;SDS011;4405;49.272;8.590;2023-06-14T13:47:16;3.73;;;3.53;;
8737;SDS011;4405;49.272;8.590;2023-06-14T13:49:43;6.87;;;3.63;;
8737;SDS011;4405;49.272;8.590;2023-06-14T13:52:09;3.27;;;3.17;;
8737;SDS011;4405;49.272;8.590;2023-06-14T13:54:36;4.80;;;3.63;;
8737;SDS011;4405;49.272;8.590;2023-06-14T13:57:04;4.23;;;3.50;;
8737;SDS011;4405;49.272;8.590;2023-06-14T13:59:31;4.63;;;3.60;;
8737;SDS011;4405;49.272;8.590;2023-06-14T14:01:58;4.10;;;3.70;;
8737;SDS011;4405;49.272;8.590;2023-06-14T14:04:24;6.53;;;3.83;;
8737;SDS011;4405;49.272;8.590;2023-06-14T14:06:51;6.77;;;3.77;;
8737;SDS011;4405;49.272;8.590;2023-06-14T14:09:17;3.93;;;3.63;;
8737;SDS011;4405;49.272;8.590;2023-06-14T14:11:44;3.73;;;3.47;;
8737;SDS011;4405;49.272;8.590;2023-06-14T14:14:11;3.80;;;3.60;;
8737;SDS011;4405;49.272;8.590;2023-06-14T14:16:38;4.50;;;3.50;;
8737;SDS011;4405;49.272;8.590;2023-06-14T14:19:04;4.13;;;3.20;;
8737;SDS011;4405;49.272;8.590;2023-06-14T14:21:31;4.00;;;3.70;;
8737;SDS011;4405;49.272;8.590;2023-06-14T14:23:57;3.83;;;3.50;;
8737;SDS011;4405;49.272;8.590;2023-06-14T14:26:24;4.33;;;4.00;;
8737;SDS011;4405;49.272;8.590;2023-06-14T14:28:50;4.17;;;3.87;;
8737;SDS011;4405;49.272;8.590;2023-06-14T14:31:18;3.63;;;3.43;;
8737;SDS011;4405;49.272;8.590;2023-06-14T14:33:44;3.73;;;3.50;;
8737;SDS011;4405;49.272;8.590;2023-06-14T14:36:11;4.27;;;3.53;;
8737;SDS011;4405;49.272;8.590;2023-06-14T14:38:38;3.50;;;3.30;;
8737;SDS011;4405;49.272;8.590;2023-06-14T14:41:04;3.70;;;3.50;;
8737;SDS011;4405;49.272;8.590;2023-06-14T14:43:31;3.80;;;3.60;;
8737;SDS011;4405;49.272;8.590;2023-06-14T14:45:57;3.80;;;3.63;;
8737;SDS011;4405;49.272;8.590;2023-06-14T14:48:25;4.30;;;4.10;;
8737;SDS011;4405;49.272;8.590;2023-06-14T14:50:51;3.57;;;3.37;;
8737;SDS011;4405;49.272;8.590;2023-06-14T14:53:18;3.53;;;3.33;;
8737;SDS011;4405;49.272;8.590;2023-06-14T14:55:44;4.07;;;3.40;;
8737;SDS011;4405;49.272;8.590;2023-06-14T14:58:11;4.00;;;3.60;;
8737;SDS011;4405;49.272;8.590;2023-06-14T15:00:38;3.30;;;3.20;;
8737;SDS011;4405;49.272;8.590;2023-06-14T15:03:04;4.00;;;3.70;;
8737;SDS011;4405;49.272;8.590;2023-06-14T15:05:32;3.60;;;3.37;;
8737;SDS011;4405;49.272;8.590;2023-06-14T15:07:58;4.23;;;3.37;;
8737;SDS011;4405;49.272;8.590;2023-06-14T15:10:25;3.80;;;3.60;;
8737;SDS011;4405;49.272;8.590;2023-06-14T15:12:51;3.53;;;3.33;;
8737;SDS011;4405;49.272;8.590;2023-06-14T15:15:17;4.00;;;3.80;;
8737;SDS011;4405;49.272;8.590;2023-06-14T15:17:44;3.43;;;3.23;;
8737;SDS011;4405;49.272;8.590;2023-06-14T15:20:10;5.10;;;3.50;;
8737;SDS011;4405;49.272;8.590;2023-06-14T15:22:39;3.70;;;3.50;;